createdAt,value
2022-09-07T00:02:54.282Z,793
2022-09-07T00:08:24.696Z,787
2022-09-07T00:13:53.984Z,788
2022-09-07T00:19:24.410Z,789
2022-09-07T00:24:53.804Z,781
2022-09-07T00:30:24.145Z,783
2022-09-07T00:35:53.511Z,789
2022-09-07T00:41:23.876Z,780
2022-09-07T00:46:54.262Z,785
2022-09-07T00:52:23.602Z,783
2022-09-07T00:57:53.936Z,785
2022-09-07T01:03:23.411Z,787
2022-09-07T01:08:53.767Z,784
2022-09-07T01:14:24.140Z,782
2022-09-07T01:19:53.567Z,783
2022-09-07T01:25:23.850Z,783
2022-09-07T01:30:54.251Z,788
2022-09-07T01:36:23.609Z,790
2022-09-07T01:41:53.973Z,786
2022-09-07T01:47:23.373Z,782
2022-09-07T01:52:53.729Z,784
2022-09-07T01:58:24.108Z,782
2022-09-07T02:03:53.470Z,787
2022-09-07T02:09:23.844Z,791
2022-09-07T02:14:54.228Z,781
2022-09-07T02:20:23.728Z,791
2022-09-07T02:25:54.042Z,793
2022-09-07T02:31:24.494Z,798
2022-09-07T02:36:53.783Z,799
2022-09-07T02:42:24.128Z,795
2022-09-07T02:47:54.470Z,797
2022-09-07T02:53:23.848Z,803
2022-09-07T02:58:54.156Z,817
2022-09-07T03:04:23.501Z,824
2022-09-07T03:09:53.829Z,834
2022-09-07T03:15:24.314Z,846
2022-09-07T03:20:53.677Z,843
2022-09-07T03:26:24.027Z,838
2022-09-07T03:31:54.380Z,834
2022-09-07T03:37:23.769Z,833
2022-09-07T03:42:54.104Z,833
2022-09-07T03:48:23.479Z,838
2022-09-07T03:53:53.851Z,847
2022-09-07T03:59:24.185Z,860
2022-09-07T04:04:53.577Z,865
2022-09-07T04:10:23.945Z,858
2022-09-07T04:15:53.963Z,849
2022-09-07T04:21:23.745Z,847
2022-09-07T04:26:54.089Z,852
2022-09-07T04:32:24.585Z,846
2022-09-07T04:37:55.065Z,855
2022-09-07T04:43:25.450Z,855
2022-09-07T04:48:54.828Z,850
2022-09-07T04:54:25.156Z,839
2022-09-07T04:59:55.532Z,846
2022-09-07T05:05:24.902Z,836
2022-09-07T05:10:55.257Z,842
2022-09-07T05:16:24.740Z,843
2022-09-07T05:21:55.021Z,839
2022-09-07T05:27:25.356Z,841
2022-09-07T05:32:54.793Z,838
2022-09-07T05:38:25.115Z,829
2022-09-07T05:49:24.843Z,829
2022-09-07T05:55:03.209Z,826
2022-09-07T06:00:24.675Z,822
2022-09-07T06:05:55.022Z,816
2022-09-07T06:11:25.414Z,811
2022-09-07T06:16:54.818Z,813
2022-09-07T06:22:28.857Z,815
2022-09-07T06:27:54.403Z,812
2022-09-07T06:33:24.693Z,807
2022-09-07T06:38:55.006Z,803
2022-09-07T06:44:24.353Z,807
2022-09-07T06:49:54.692Z,806
2022-09-07T06:55:24.998Z,807
2022-09-07T07:00:54.449Z,812
2022-09-07T07:06:24.740Z,810
2022-09-07T07:11:54.042Z,811
2022-09-07T07:17:24.370Z,801
2022-09-07T07:22:54.707Z,799
2022-09-07T07:33:54.558Z,812
2022-09-07T07:50:31.701Z,797
2022-09-07T07:55:53.692Z,801
2022-09-07T08:01:23.080Z,805
2022-09-07T08:06:53.338Z,806
2022-09-07T08:12:24.605Z,816
2022-09-07T08:17:52.943Z,808
2022-09-07T08:23:23.295Z,804
2022-09-07T08:28:52.654Z,808
2022-09-07T08:34:22.962Z,808
2022-09-07T08:39:52.452Z,802
2022-09-07T08:45:22.575Z,799
2022-09-07T08:50:52.881Z,806
2022-09-07T08:56:22.208Z,806
2022-09-07T09:07:22.798Z,808
2022-09-07T09:12:52.107Z,804
2022-09-07T09:18:22.370Z,801
2022-09-07T09:23:51.700Z,809
2022-09-07T09:29:22.066Z,808
2022-09-07T09:34:52.236Z,801
2022-09-07T09:40:21.600Z,803
2022-09-07T09:46:16.791Z,801
2022-09-07T09:56:51.548Z,799
2022-09-07T10:07:51.067Z,806
2022-09-07T10:13:21.320Z,800
2022-09-07T10:18:51.644Z,797
2022-09-07T10:24:20.944Z,801
2022-09-07T10:29:51.205Z,798
2022-09-07T10:35:20.577Z,800
2022-09-07T10:40:50.784Z,799
2022-09-07T10:51:50.557Z,792
2022-09-07T10:57:20.779Z,790
2022-09-07T11:08:20.380Z,790
2022-09-07T11:14:12.069Z,791
2022-09-07T11:19:36.419Z,791
2022-09-07T11:25:29.179Z,790
2022-09-07T11:30:19.602Z,788
2022-09-07T11:35:49.879Z,789
2022-09-07T11:41:19.233Z,792
2022-09-07T11:46:49.475Z,789
2022-09-07T11:52:19.726Z,791
2022-09-07T11:57:52.482Z,789
2022-09-07T12:03:22.551Z,787
2022-09-07T12:08:48.586Z,779
2022-09-07T12:14:18.867Z,781
2022-09-07T12:19:49.079Z,777
2022-09-07T12:25:18.345Z,786
2022-09-07T12:30:48.627Z,786
2022-09-07T12:36:17.838Z,784
2022-09-07T12:41:48.264Z,781
2022-09-07T12:47:18.426Z,784
2022-09-07T12:52:47.731Z,776
2022-09-07T12:58:18.058Z,777
2022-09-07T13:03:50.111Z,781
2022-09-07T13:09:17.696Z,778
2022-09-07T13:14:47.971Z,778
2022-09-07T13:20:17.466Z,780
2022-09-07T13:25:47.702Z,777
2022-09-07T13:31:18.080Z,779
2022-09-07T13:36:47.316Z,778
2022-09-07T13:42:17.578Z,781
2022-09-07T13:47:46.863Z,775
2022-09-07T13:53:17.161Z,774
2022-09-07T13:58:47.443Z,781
2022-09-07T14:04:16.760Z,781
2022-09-07T14:09:47.163Z,777
2022-09-07T14:15:17.440Z,782
2022-09-07T14:20:46.758Z,807
2022-09-07T14:26:17.978Z,813
2022-09-07T14:31:47.351Z,817
2022-09-07T14:37:16.591Z,833
2022-09-07T14:42:46.976Z,833
2022-09-07T14:48:16.404Z,839
2022-09-07T14:53:46.436Z,837
2022-09-07T14:59:16.730Z,868
2022-09-07T15:04:44.995Z,863
2022-09-07T15:10:15.269Z,871
2022-09-07T15:15:46.623Z,910
2022-09-07T15:21:14.775Z,904
2022-09-07T15:27:08.224Z,867
2022-09-07T15:32:16.681Z,835
2022-09-07T15:43:20.591Z,833
2022-09-07T15:48:44.273Z,832
2022-09-07T15:54:14.771Z,813
2022-09-07T15:59:44.828Z,821
2022-09-07T16:05:14.343Z,840
2022-09-07T16:10:44.439Z,862
2022-09-07T16:16:15.718Z,863
2022-09-07T16:21:44.038Z,886
2022-09-07T16:27:14.301Z,883
2022-09-07T16:32:44.279Z,887
2022-09-07T16:43:44.205Z,912
2022-09-07T16:49:13.531Z,914
2022-09-07T16:54:43.880Z,919
2022-09-07T17:00:13.173Z,923
2022-09-07T17:05:43.507Z,933
2022-09-07T17:11:13.846Z,947
2022-09-07T17:16:43.200Z,948
2022-09-07T17:22:13.434Z,945
2022-09-07T17:27:44.026Z,822
2022-09-07T17:33:13.133Z,792
2022-09-07T17:44:12.701Z,777
2022-09-07T17:49:42.959Z,774
2022-09-07T17:55:13.259Z,772
2022-09-07T18:00:42.657Z,765
2022-09-07T18:06:12.842Z,767
2022-09-07T18:11:46.887Z,765
2022-09-07T18:17:12.568Z,771
2022-09-07T18:22:42.835Z,772
2022-09-07T18:33:42.666Z,811
2022-09-07T18:39:12.964Z,833
2022-09-07T18:50:11.689Z,857
2022-09-07T18:55:42.025Z,871
2022-09-07T19:01:11.521Z,873
2022-09-07T19:06:41.741Z,879
2022-09-07T19:12:12.067Z,882
2022-09-07T19:17:41.434Z,883
2022-09-07T19:23:11.792Z,874
2022-09-07T19:28:41.124Z,895
2022-09-07T19:34:11.492Z,910
2022-09-07T19:39:41.940Z,913
2022-09-07T19:45:11.225Z,893
2022-09-07T19:50:41.538Z,889
2022-09-07T19:56:11.846Z,889
2022-09-07T20:01:41.191Z,900
2022-09-07T20:07:11.558Z,900
2022-09-07T20:12:40.986Z,905
2022-09-07T20:18:11.244Z,911
2022-09-07T20:23:41.552Z,930
2022-09-07T20:29:28.135Z,929
2022-09-07T20:34:41.181Z,930
2022-09-07T20:40:10.595Z,927
2022-09-07T20:45:40.835Z,929
2022-09-07T20:51:11.119Z,926
2022-09-07T20:56:40.428Z,919
2022-09-07T21:02:10.895Z,918
2022-09-07T21:07:41.048Z,928
2022-09-07T21:13:10.355Z,924
2022-09-07T21:18:40.685Z,906
2022-09-07T21:24:09.974Z,904
2022-09-07T21:29:40.272Z,901
2022-09-07T21:35:10.637Z,898
2022-09-07T21:40:40.029Z,905
2022-09-07T21:46:10.631Z,908
2022-09-07T21:51:40.716Z,912
2022-09-07T21:57:10.041Z,925
2022-09-07T22:02:40.334Z,947
2022-09-07T22:08:09.688Z,960
2022-09-07T22:13:39.982Z,956
2022-09-07T22:19:10.300Z,940
2022-09-07T22:24:39.672Z,929
2022-09-07T22:30:08.989Z,925
2022-09-07T22:35:39.316Z,922
2022-09-07T22:41:09.661Z,925
2022-09-07T22:46:39.084Z,929
2022-09-07T22:52:09.278Z,922
2022-09-07T22:57:39.723Z,914
2022-09-07T23:03:09.114Z,912
2022-09-07T23:08:39.387Z,908
2022-09-07T23:14:08.739Z,910
2022-09-07T23:19:39.076Z,901
2022-09-07T23:25:09.395Z,898
2022-09-07T23:30:38.808Z,899
2022-09-07T23:36:09.127Z,895
2022-09-07T23:41:39.472Z,895
2022-09-07T23:47:08.829Z,888
2022-09-07T23:52:39.154Z,876
2022-09-07T23:58:08.521Z,878
